GCRRGMMX

Guest
Details From GCRR - Lanzarote
To GMMX - MENARA
Flight Number -
Tags generated
Created
Modified
Stats Distance 337 nm / 624 km
Max Altitude 35,000 ft / 10,668 m
Waypoints 5
Social Downloads 0
Likes 0
Share VATSIM

Download

Looking for another format? Having issues loading an existing format? Contact us
Advertisement - Login to hide

Notes

Basic altitude profile: - Ascent Rate: 2500ft/min - Ascent Speed: 250kts - Cruise Altitude: 35000ft - Cruise Speed: 420kts - Descent Rate: 1500ft/min - Descent Speed: 250kts Options: - Use NATs: yes - Use PACOTS: yes - Use low airways: yes - Use high airways: yes

Route

GCRR SONSO UG5 ESS B11 MAK GMMX

ID Type Via Altitude Latitude Longitude Leg Dist Tot Dist Heading (true) Name
O GCRR APT - 0 ft / 0 m 28.94547˚ -13.60522˚ - 0 nm - Lanzarote
SONSO FIX - 35,000 ft / 10,668 m 30.01222˚ -12.10194˚ 101 nm 101 nm 50° / 51° -
ESS VOR UG5 (AWY-HI) 29,500 ft / 8,992 m 31.40124˚ -9.68696˚ 150 nm 251 nm 56° / 57° ESSAOUIRA VOR-DME
MAK VOR B11 (AWY-LO) 19,500 ft / 5,944 m 31.61278˚ -8.10306˚ 82 nm 333 nm 81° / 82° MARRAKECH VOR-DME
O GMMX APT - 0 ft / 0 m 31.60692˚ -8.03627˚ 3 nm 336 nm 96° / 96° MENARA

Altitude Profile

Advertisement - Login to hide

Weather


0- 5 10 15 20 25 30 35+ Temperature / ° C

Clouds and Precipitation
Forecast for 2017-12-13 18:00 UTC. Updated 9 minutes ago

Ground ~20,000 ft ~40,000 ft Winds

GCRR

Details ICAO GCRR (ACE)
Name Lanzarote
Region Canary Islands
Timezone Atlantic/Canary (UTC+0.0)
Stats Elevation 0 ft / 0 m (AMSL)
Location 28.945466° -13.605223°
Runways 1
Magnetic Variation 3.976° W

METAR

GCRR 131700Z 04020G30KT 9999 FEW040 19/11 Q1022

Decode

TAF

TAF GCRR 131400Z 1315/1415 02020KT 9999 FEW040 TX21/1414Z TN15/1406Z TEMPO 1315/1318 02025G35KT BECMG 1402/1404 02010KT

Decode

Departure Runways

ID Width Length Bearing (true) Bearing (mag) Surface Threshold Offset Overrun Length
03 148 ft / 45 m 7,893 ft / 2,406 m 26.90° 30.88° Asphalt 197 ft / 60 m 197 ft / 60 m
21 148 ft / 45 m 7,893 ft / 2,406 m 206.91° 210.89° Asphalt 197 ft / 60 m 197 ft / 60 m

GMMX

Details ICAO GMMX (RAK)
Name MENARA
Region Morocco
Timezone Africa/Casablanca (UTC+0.0)
Stats Elevation 1,545 ft / 471 m (AMSL)
Location 31.606920° -8.036265°
Runways 1
Magnetic Variation 2.000° W

METAR

GMMX 131700Z 04004KT 020V080 9999 FEW020 14/04 Q1023 NOSIG

Decode

TAF

TAF TAF GMMX 131100Z 1312/1418 06006KT CAVOK

Decode

Destination Runways

ID Width Length Bearing (true) Bearing (mag) Surface Threshold Offset Overrun Length
10 148 ft / 45 m 10,169 ft / 3,100 m 95.99° 97.99° Asphalt 918 ft / 280 m 0 ft / 0 m
28 148 ft / 45 m 10,169 ft / 3,100 m 276.00° 278.00° Asphalt 0 ft / 0 m 0 ft / 0 m

Approach Navaids

Runway Type Ident Frequency Range Bearing (true) Bearing (mag) Slope Elevation
10 Localiser MAR 109.70 MHz 18 nm / 33 km 96.03° 98.02° - 1,545 ft / 471 m (AMSL)
10 Glidescope MAR 109.70 MHz 10 nm / 19 km 96.00° 98.00° 3.00° 1,558 ft / 475 m (AMSL)

Popular Alternatives